Time;durP1;ratioP1;P1;durP2;ratioP2;P2;SDS_P1;SDS_P2;PMS_P1;PMS_P2;Temp;Humidity;BMP_temperature;BMP_pressure;BME280_temperature;BME280_humidity;BME280_pressure;Samples;Min_cycle;Max_cycle;Signal;HPM_P1;HPM_P2
2019/09/22 00:02:17;;;;;;;12;5;;;;;;;11.97;75.88184;958.5164;;;;
2019/09/22 00:04:42;;;;;;;9;4.7;;;;;;;11.97;75.81348;958.5081;;;;
2019/09/22 00:07:07;;;;;;;8.2;5;;;;;;;11.94;76.7666;958.4744;;;;
2019/09/22 00:09:32;;;;;;;10.1;5;;;;;;;11.8;76.85645;958.4828;;;;
2019/09/22 00:11:58;;;;;;;8.1;4.8;;;;;;;11.82;76.89648;958.5101;;;;
2019/09/22 00:14:23;;;;;;;8.9;5.1;;;;;;;11.85;76.55469;958.4341;;;;
2019/09/22 00:16:48;;;;;;;12;5.2;;;;;;;11.81;76.59277;958.4821;;;;
2019/09/22 00:19:13;;;;;;;7.1;4.4;;;;;;;11.81;77.21582;958.5;;;;
2019/09/22 00:21:38;;;;;;;6.6;4.3;;;;;;;11.8;76.79883;958.5008;;;;
2019/09/22 00:24:03;;;;;;;7.3;4.2;;;;;;;11.92;75.93262;958.5034;;;;
2019/09/22 00:26:28;;;;;;;7.1;4.3;;;;;;;11.96;76.35449;958.4367;;;;
2019/09/22 00:28:53;;;;;;;6.9;4.4;;;;;;;11.87;76.73047;958.3761;;;;
2019/09/22 00:31:18;;;;;;;6.9;3.7;;;;;;;11.83;76.45898;958.3346;;;;
2019/09/22 00:33:43;;;;;;;9.9;4.2;;;;;;;11.92;76.16309;958.3809;;;;
2019/09/22 00:36:09;;;;;;;7.1;3.9;;;;;;;11.84;76.16016;958.4064;;;;
2019/09/22 00:38:34;;;;;;;6.9;3.9;;;;;;;11.85;76.68164;958.4977;;;;
2019/09/22 00:40:59;;;;;;;7.5;4;;;;;;;11.81;76.28223;958.4485;;;;
2019/09/22 00:43:24;;;;;;;7.6;3.9;;;;;;;11.63;76.46875;958.425;;;;
2019/09/22 00:45:49;;;;;;;6.5;3.6;;;;;;;11.68;76.84766;958.4201;;;;
2019/09/22 00:48:14;;;;;;;6.3;3.6;;;;;;;11.81;76.14453;958.4094;;;;
2019/09/22 00:50:39;;;;;;;6.6;3.6;;;;;;;11.72;76.65918;958.4189;;;;
2019/09/22 00:53:04;;;;;;;6.8;3.6;;;;;;;11.79;76.32422;958.4812;;;;
2019/09/22 00:55:29;;;;;;;5.6;3.5;;;;;;;11.83;76.56152;958.466;;;;
2019/09/22 00:57:54;;;;;;;6.2;3.8;;;;;;;11.77;76.58691;958.4628;;;;
2019/09/22 01:00:19;;;;;;;8.2;3.5;;;;;;;11.74;77.02051;958.4658;;;;
2019/09/22 01:02:44;;;;;;;5.4;3.7;;;;;;;11.71;77.08301;958.4947;;;;
2019/09/22 01:05:10;;;;;;;8.1;4.1;;;;;;;11.6;77.52539;958.387;;;;
2019/09/22 01:07:35;;;;;;;8.2;4.2;;;;;;;11.57;77.83203;958.4169;;;;
2019/09/22 01:10:00;;;;;;;9.2;4;;;;;;;11.49;78.43848;958.3728;;;;
2019/09/22 01:12:25;;;;;;;7.8;3.8;;;;;;;11.43;77.90039;958.3328;;;;
2019/09/22 01:14:50;;;;;;;9.7;3.9;;;;;;;11.41;78.05859;958.2623;;;;
2019/09/22 01:17:15;;;;;;;11.7;4.1;;;;;;;11.5;77.7041;958.3549;;;;
2019/09/22 01:19:40;;;;;;;8;4.1;;;;;;;11.51;78.5459;958.3434;;;;
2019/09/22 01:22:05;;;;;;;8.3;4.1;;;;;;;11.46;78.52832;958.3912;;;;
2019/09/22 01:24:30;;;;;;;6.9;4.2;;;;;;;11.41;78.55273;958.3822;;;;
2019/09/22 01:26:56;;;;;;;7.7;4;;;;;;;11.37;79.3291;958.3785;;;;
2019/09/22 01:29:21;;;;;;;6.6;4.2;;;;;;;11.34;79.15039;958.3315;;;;
2019/09/22 01:31:46;;;;;;;7.8;4.1;;;;;;;11.38;79.13574;958.2766;;;;
2019/09/22 01:34:11;;;;;;;7.7;3.8;;;;;;;11.42;78.16211;958.2484;;;;
2019/09/22 01:36:36;;;;;;;6.7;3.8;;;;;;;11.39;78.89551;958.1836;;;;
2019/09/22 01:39:02;;;;;;;7;4.1;;;;;;;11.39;79.13574;958.1583;;;;
2019/09/22 01:41:26;;;;;;;9;4.1;;;;;;;11.33;78.67676;958.1877;;;;
2019/09/22 01:43:52;;;;;;;7.3;4.1;;;;;;;11.38;78.91699;958.1934;;;;
2019/09/22 01:46:17;;;;;;;6.6;4.4;;;;;;;11.35;79.02539;958.1375;;;;
2019/09/22 01:48:43;;;;;;;8.5;4.7;;;;;;;11.27;78.83789;958.0988;;;;
2019/09/22 01:51:08;;;;;;;7.7;4.4;;;;;;;11.3;78.93555;958.1228;;;;
2019/09/22 01:53:34;;;;;;;8.3;4.3;;;;;;;11.3;79.29199;958.1049;;;;
2019/09/22 01:55:59;;;;;;;5.6;3.9;;;;;;;11.26;79.64355;958.0302;;;;
2019/09/22 01:58:24;;;;;;;7.3;4.2;;;;;;;11.19;79.59668;957.9967;;;;
2019/09/22 02:00:49;;;;;;;8.2;4.3;;;;;;;11.18;79.80176;957.9409;;;;
2019/09/22 02:03:14;;;;;;;8.4;4.2;;;;;;;11.11;80.00684;957.9286;;;;
2019/09/22 02:05:40;;;;;;;7.6;3.9;;;;;;;11.18;79.83789;957.9319;;;;
2019/09/22 02:08:05;;;;;;;6.7;3.9;;;;;;;11.24;79.38672;957.9564;;;;
2019/09/22 02:10:31;;;;;;;9.2;4.3;;;;;;;11.15;79.96973;957.9119;;;;
2019/09/22 02:12:56;;;;;;;7.1;4.1;;;;;;;11.13;79.93164;957.7789;;;;
2019/09/22 02:15:21;;;;;;;7.7;4.1;;;;;;;11.12;80.34277;957.7158;;;;
2019/09/22 02:17:47;;;;;;;7.1;4.5;;;;;;;11.05;80.14648;957.7034;;;;
2019/09/22 02:20:12;;;;;;;7.3;4.4;;;;;;;11.09;80.44336;957.7317;;;;
2019/09/22 02:22:37;;;;;;;9;4.3;;;;;;;11;80.76074;957.7157;;;;
2019/09/22 02:25:03;;;;;;;6.5;4.5;;;;;;;10.96;81.44238;957.7128;;;;
2019/09/22 02:27:28;;;;;;;9.2;4.8;;;;;;;10.92;81.36816;957.6863;;;;
2019/09/22 02:29:54;;;;;;;6.7;4.1;;;;;;;10.88;81.61133;957.7001;;;;
2019/09/22 02:32:19;;;;;;;9.3;4.6;;;;;;;10.98;81.02051;957.6194;;;;
2019/09/22 02:34:44;;;;;;;7.6;4.3;;;;;;;10.92;80.86133;957.6373;;;;
2019/09/22 02:37:09;;;;;;;6.6;3.9;;;;;;;10.92;80.95313;957.5909;;;;
2019/09/22 02:39:35;;;;;;;7.3;4.1;;;;;;;10.89;81.03711;957.5086;;;;
2019/09/22 02:42:00;;;;;;;5.5;4.1;;;;;;;10.92;80.92969;957.4751;;;;
2019/09/22 02:44:25;;;;;;;9.6;4.3;;;;;;;10.94;80.46094;957.538;;;;
2019/09/22 02:46:51;;;;;;;6.8;4.3;;;;;;;10.8;81.39063;957.6168;;;;
2019/09/22 02:49:16;;;;;;;8.1;4.1;;;;;;;10.77;81.03809;957.6384;;;;
2019/09/22 02:51:41;;;;;;;8.3;4.1;;;;;;;10.78;81.84766;957.5903;;;;
2019/09/22 02:54:07;;;;;;;7.7;4.3;;;;;;;10.83;81.20117;957.5895;;;;
2019/09/22 02:56:32;;;;;;;5.7;4.1;;;;;;;10.95;80.50879;957.5366;;;;
2019/09/22 02:58:57;;;;;;;6.4;3.7;;;;;;;10.86;80.44434;957.5513;;;;
2019/09/22 03:01:22;;;;;;;6.6;4.2;;;;;;;10.88;81.01172;957.5664;;;;
2019/09/22 03:03:48;;;;;;;8;4.9;;;;;;;10.85;81.06445;957.5505;;;;
2019/09/22 03:06:13;;;;;;;7.7;4.4;;;;;;;10.8;81.03125;957.4185;;;;
2019/09/22 03:08:38;;;;;;;9.3;4.4;;;;;;;10.9;80.94824;957.4551;;;;
2019/09/22 03:11:04;;;;;;;8.8;5.1;;;;;;;10.77;81.33789;957.537;;;;
2019/09/22 03:13:29;;;;;;;7.6;5.1;;;;;;;10.69;81.13965;957.5939;;;;
2019/09/22 03:15:55;;;;;;;8.2;5;;;;;;;10.61;81.81543;957.6431;;;;
2019/09/22 03:18:20;;;;;;;7.8;5.2;;;;;;;10.78;80.62695;957.6124;;;;
2019/09/22 03:20:45;;;;;;;8.9;5.1;;;;;;;10.71;80.66895;957.6053;;;;
2019/09/22 03:23:10;;;;;;;8.9;5.3;;;;;;;10.77;80.24316;957.6079;;;;
2019/09/22 03:25:36;;;;;;;8.2;5.3;;;;;;;10.85;79.83203;957.7111;;;;
2019/09/22 03:28:01;;;;;;;10.9;5.5;;;;;;;10.75;79.84863;957.6902;;;;
2019/09/22 03:30:27;;;;;;;8.8;5.1;;;;;;;10.77;79.63281;957.6169;;;;
2019/09/22 03:32:52;;;;;;;8.7;5.3;;;;;;;10.57;80.01172;957.6857;;;;
2019/09/22 03:35:18;;;;;;;8.2;5.5;;;;;;;10.49;80.47949;957.616;;;;
2019/09/22 03:37:43;;;;;;;7.6;5.3;;;;;;;10.41;81.18945;957.6113;;;;
2019/09/22 03:40:08;;;;;;;8.5;4.9;;;;;;;10.37;81.80566;957.5675;;;;
2019/09/22 03:42:33;;;;;;;9.1;5;;;;;;;10.44;81.57617;957.5672;;;;
2019/09/22 03:44:59;;;;;;;7.8;5.2;;;;;;;10.37;81.56445;957.5659;;;;
2019/09/22 03:47:24;;;;;;;8.6;5;;;;;;;10.38;81.65625;957.5728;;;;
2019/09/22 03:49:50;;;;;;;8;5.2;;;;;;;10.34;81.72852;957.4644;;;;
2019/09/22 03:52:15;;;;;;;8.5;5.3;;;;;;;10.3;82.1582;957.4467;;;;
2019/09/22 03:54:40;;;;;;;9.2;5.1;;;;;;;10.26;82.7959;957.4841;;;;
2019/09/22 03:57:06;;;;;;;9.1;5.3;;;;;;;10.36;82.12305;957.5389;;;;
2019/09/22 03:59:31;;;;;;;7.7;5.2;;;;;;;10.34;82.8916;957.5622;;;;
2019/09/22 04:02:27;;;;;;;7.5;4.8;;;;;;;10.31;82.88281;957.5575;;;;
2019/09/22 04:04:52;;;;;;;7.2;5.3;;;;;;;10.31;82.73535;957.5535;;;;
2019/09/22 04:07:17;;;;;;;10;5.8;;;;;;;10.41;82.27051;957.4739;;;;
2019/09/22 04:09:42;;;;;;;8.6;5.4;;;;;;;10.45;83.05078;957.5078;;;;
2019/09/22 04:12:07;;;;;;;8.4;5.1;;;;;;;10.46;82.41895;957.5446;;;;
2019/09/22 04:14:33;;;;;;;7.2;4.8;;;;;;;10.5;82.34766;957.4973;;;;
2019/09/22 04:16:58;;;;;;;9.2;5.5;;;;;;;10.43;82.41211;957.4903;;;;
2019/09/22 04:19:23;;;;;;;8.5;5.3;;;;;;;10.37;83.3916;957.4437;;;;
2019/09/22 04:21:48;;;;;;;8.3;5.7;;;;;;;10.24;84.64258;957.3649;;;;
2019/09/22 04:24:13;;;;;;;7.3;5.2;;;;;;;10.47;82.76758;957.342;;;;
2019/09/22 04:26:38;;;;;;;9.4;5.2;;;;;;;10.43;83.33496;957.2874;;;;
2019/09/22 04:29:03;;;;;;;9.1;5.3;;;;;;;10.35;83.8584;957.2648;;;;
2019/09/22 04:31:28;;;;;;;8;5.3;;;;;;;10.23;85.27246;957.2756;;;;
2019/09/22 04:33:53;;;;;;;8.3;5;;;;;;;10.25;85.4375;957.2859;;;;
2019/09/22 04:36:18;;;;;;;7.2;4.8;;;;;;;10.28;85.27051;957.3038;;;;
2019/09/22 04:38:43;;;;;;;8.6;5.2;;;;;;;10.25;85.73633;957.3283;;;;
2019/09/22 04:41:08;;;;;;;7.6;4.8;;;;;;;10.32;85.39453;957.3401;;;;
2019/09/22 04:43:33;;;;;;;8;5.5;;;;;;;10.32;85.2793;957.2986;;;;
2019/09/22 04:45:58;;;;;;;7;4.9;;;;;;;10.22;85.83496;957.2862;;;;
2019/09/22 04:48:24;;;;;;;5.9;4.4;;;;;;;10.25;85.41602;957.3006;;;;
2019/09/22 04:50:49;;;;;;;10.7;5.3;;;;;;;10.26;85.19922;957.3094;;;;
2019/09/22 04:53:14;;;;;;;7.3;4.7;;;;;;;10.3;84.81543;957.3164;;;;
2019/09/22 04:55:40;;;;;;;9.9;5.5;;;;;;;10.27;85.25879;957.2858;;;;
2019/09/22 04:58:05;;;;;;;8.3;5.4;;;;;;;10.15;86.05176;957.3014;;;;
2019/09/22 05:00:30;;;;;;;7.5;5.2;;;;;;;10.14;86.06152;957.2444;;;;
2019/09/22 05:02:56;;;;;;;8;5;;;;;;;10.3;85.67773;957.2619;;;;
2019/09/22 05:05:21;;;;;;;9.9;5.4;;;;;;;10.2;85.7041;957.2462;;;;
2019/09/22 05:07:51;;;;;;;8.9;5;;;;;;;10.08;86.57617;957.1828;;;;
2019/09/22 05:10:18;;;;;;;8.7;5.3;;;;;;;10.03;86.25879;957.1553;;;;
2019/09/22 05:12:47;;;;;;;8.5;5.4;;;;;;;10.25;85;957.1506;;;;
2019/09/22 05:15:12;;;;;;;9.1;5.5;;;;;;;10.03;86.30469;957.1016;;;;
2019/09/22 05:17:37;;;;;;;7.9;5.1;;;;;;;10.1;85.69434;957.0765;;;;
2019/09/22 05:20:03;;;;;;;9.2;5.7;;;;;;;10.18;85.13574;957.152;;;;
2019/09/22 05:22:28;;;;;;;10.6;5.3;;;;;;;10.27;84.51074;957.1311;;;;
2019/09/22 05:24:54;;;;;;;8.5;5.3;;;;;;;10.27;84.60352;957.1694;;;;
2019/09/22 05:27:20;;;;;;;8.9;5.2;;;;;;;10.35;84.48047;957.2327;;;;
2019/09/22 05:29:48;;;;;;;8.2;5.3;;;;;;;10.4;84.11133;957.1672;;;;
2019/09/22 05:32:13;;;;;;;8.8;5.2;;;;;;;10.31;84.55273;957.1716;;;;
2019/09/22 05:34:38;;;;;;;9.1;5.4;;;;;;;10.3;84.95313;957.1699;;;;
2019/09/22 05:37:03;;;;;;;9.9;5.2;;;;;;;10.4;84.31836;957.1803;;;;
2019/09/22 05:39:46;;;;;;;6.4;4.8;;;;;;;10.48;83.74609;957.2158;;;;
2019/09/22 05:42:22;;;;;;;7.1;5.1;;;;;;;10.45;84.17578;957.2283;;;;
2019/09/22 05:44:58;;;;;;;7.5;5;;;;;;;10.63;82.92383;957.1904;;;;
2019/09/22 05:47:25;;;;;;;8.2;5.1;;;;;;;10.62;83.56641;957.1847;;;;
2019/09/22 05:49:50;;;;;;;8.8;5;;;;;;;10.74;82.72559;957.1889;;;;
2019/09/22 05:52:17;;;;;;;6.8;5.3;;;;;;;10.68;82.72461;957.2285;;;;
2019/09/22 05:54:42;;;;;;;6.3;5.2;;;;;;;10.7;82.17773;957.3103;;;;
2019/09/22 05:57:07;;;;;;;8.2;5.4;;;;;;;10.68;82.58887;957.3616;;;;
2019/09/22 05:59:32;;;;;;;7.3;5.2;;;;;;;10.66;82.33203;957.3677;;;;
2019/09/22 06:01:58;;;;;;;7.9;5;;;;;;;10.58;82.8457;957.4543;;;;
2019/09/22 06:04:23;;;;;;;7.5;5.1;;;;;;;10.63;82.86816;957.4398;;;;
2019/09/22 06:06:48;;;;;;;7.8;5.4;;;;;;;10.67;83.63281;957.4688;;;;
2019/09/22 06:09:13;;;;;;;7.3;5;;;;;;;10.63;83.0752;957.4366;;;;
2019/09/22 06:11:38;;;;;;;7.7;5.1;;;;;;;10.61;83.41504;957.4133;;;;
2019/09/22 06:14:03;;;;;;;8.7;5.4;;;;;;;10.69;82.625;957.3542;;;;
2019/09/22 06:16:28;;;;;;;7.9;5.4;;;;;;;10.53;83.08887;957.3976;;;;
2019/09/22 06:18:53;;;;;;;8.7;5.7;;;;;;;10.48;83.30859;957.4847;;;;
2019/09/22 06:21:18;;;;;;;8;4.9;;;;;;;10.61;83.08105;957.5575;;;;
2019/09/22 06:23:43;;;;;;;7;5;;;;;;;10.7;82.60352;957.5711;;;;
2019/09/22 06:26:14;;;;;;;8.6;5.2;;;;;;;10.61;82.69043;957.5583;;;;
2019/09/22 06:28:39;;;;;;;6.4;4.8;;;;;;;10.65;82.97363;957.5623;;;;
2019/09/22 06:31:04;;;;;;;7.9;5.1;;;;;;;10.65;83.23828;957.5551;;;;
2019/09/22 06:33:29;;;;;;;8.7;5.4;;;;;;;10.86;82.50781;957.5402;;;;
2019/09/22 06:35:55;;;;;;;8.1;5.3;;;;;;;10.87;82.35938;957.5109;;;;
2019/09/22 06:38:20;;;;;;;7.3;5.6;;;;;;;10.75;82.27832;957.51;;;;
2019/09/22 06:40:45;;;;;;;7.9;5;;;;;;;10.94;82.46387;957.4972;;;;
2019/09/22 06:43:10;;;;;;;9.1;5.7;;;;;;;10.97;82.80469;957.5481;;;;
2019/09/22 06:45:35;;;;;;;8.1;5.5;;;;;;;10.97;81.61816;957.4934;;;;
2019/09/22 06:48:03;;;;;;;7.7;5.4;;;;;;;11.03;81.27148;957.4748;;;;
2019/09/22 06:50:26;;;;;;;9.7;5.7;;;;;;;11;81.82031;957.4678;;;;
2019/09/22 06:52:51;;;;;;;9.4;5.7;;;;;;;11.16;81.35352;957.4833;;;;
2019/09/22 06:55:17;;;;;;;11.9;5.6;;;;;;;11.17;81.35352;957.5355;;;;
2019/09/22 06:57:42;;;;;;;7.5;5.5;;;;;;;11.23;80.75684;957.577;;;;
2019/09/22 07:00:12;;;;;;;7.5;5.1;;;;;;;11.31;80.59863;957.6541;;;;
2019/09/22 07:02:36;;;;;;;7.8;5.4;;;;;;;11.3;80.49316;957.6358;;;;
2019/09/22 07:05:01;;;;;;;8.4;5.4;;;;;;;11.32;79.8623;957.5447;;;;
2019/09/22 07:07:26;;;;;;;7.9;5.4;;;;;;;11.33;80.47461;957.5089;;;;
2019/09/22 07:09:53;;;;;;;9.1;5.3;;;;;;;11.32;80.62207;957.4998;;;;
2019/09/22 07:12:18;;;;;;;7.5;5.4;;;;;;;11.42;80.03027;957.5158;;;;
2019/09/22 07:14:43;;;;;;;8.1;5.7;;;;;;;11.52;79.20703;957.4959;;;;
2019/09/22 07:17:08;;;;;;;8.5;5.5;;;;;;;11.47;79.89063;957.4446;;;;
2019/09/22 07:19:34;;;;;;;8.9;5.7;;;;;;;11.47;80.36328;957.4103;;;;
2019/09/22 07:21:59;;;;;;;7;5.4;;;;;;;11.61;80.35352;957.4064;;;;
2019/09/22 07:24:24;;;;;;;8.7;6.3;;;;;;;11.59;80.75586;957.3995;;;;
2019/09/22 07:26:49;;;;;;;7.1;5.9;;;;;;;11.56;80.7373;957.4319;;;;
2019/09/22 07:29:14;;;;;;;8.2;5.7;;;;;;;11.66;80.41992;957.4728;;;;
2019/09/22 07:31:44;;;;;;;9.8;5.9;;;;;;;11.86;79.62695;957.4175;;;;
2019/09/22 07:34:09;;;;;;;8.8;6.3;;;;;;;11.91;79.03613;957.3193;;;;
2019/09/22 07:36:36;;;;;;;11.2;6.6;;;;;;;11.8;79.5127;957.3006;;;;
2019/09/22 07:39:02;;;;;;;10.3;6.6;;;;;;;11.85;78.78418;957.2706;;;;
2019/09/22 07:41:26;;;;;;;9.8;6.9;;;;;;;11.87;80.43652;957.3301;;;;
2019/09/22 07:43:51;;;;;;;10.3;6.4;;;;;;;11.99;79.63965;957.3876;;;;
2019/09/22 07:46:16;;;;;;;8;6.2;;;;;;;12.18;79.30273;957.3725;;;;
2019/09/22 07:48:42;;;;;;;9.5;6.6;;;;;;;12.27;79.19238;957.2999;;;;
2019/09/22 07:51:06;;;;;;;9.1;6.5;;;;;;;12.39;78.68555;957.3187;;;;
2019/09/22 07:53:36;;;;;;;12.2;8.4;;;;;;;12.34;77.95898;957.2798;;;;
2019/09/22 07:56:01;;;;;;;7.5;6.7;;;;;;;12.52;78.20898;957.2911;;;;
2019/09/22 07:58:27;;;;;;;10.9;7.1;;;;;;;12.48;77.81152;957.2795;;;;
2019/09/22 08:00:52;;;;;;;10.2;7.4;;;;;;;12.55;78.06543;957.293;;;;
2019/09/22 08:03:17;;;;;;;9;7.5;;;;;;;12.68;77.82324;957.3555;;;;
2019/09/22 08:05:43;;;;;;;12.6;7.6;;;;;;;12.41;77.44043;957.3784;;;;
2019/09/22 08:08:08;;;;;;;9;7.3;;;;;;;12.54;78.29492;957.3298;;;;
2019/09/22 08:10:33;;;;;;;7.6;6.4;;;;;;;12.74;77.58984;957.2935;;;;
2019/09/22 08:13:01;;;;;;;7.8;7;;;;;;;12.98;76.01465;957.2819;;;;
2019/09/22 08:15:26;;;;;;;8.5;6.7;;;;;;;12.98;76.17676;957.3195;;;;
2019/09/22 08:17:54;;;;;;;9.5;7.1;;;;;;;13.05;78.14258;957.2719;;;;
2019/09/22 08:20:19;;;;;;;8.8;6.8;;;;;;;13.18;76.45313;957.2872;;;;
2019/09/22 08:22:44;;;;;;;8.6;6.9;;;;;;;13.3;76.40527;957.1883;;;;
2019/09/22 08:25:09;;;;;;;10.5;6.9;;;;;;;13.35;75.63672;957.2;;;;
2019/09/22 08:27:36;;;;;;;7.5;6.7;;;;;;;13.46;74.85742;957.2366;;;;
2019/09/22 08:30:01;;;;;;;10.9;7.3;;;;;;;13.32;75.72461;957.2589;;;;
2019/09/22 08:32:26;;;;;;;11.3;7.1;;;;;;;13.3;75.23535;957.2505;;;;
2019/09/22 08:34:52;;;;;;;9;7.5;;;;;;;13.38;74.85449;957.1592;;;;
2019/09/22 08:37:19;;;;;;;10.5;7.5;;;;;;;13.44;76.97461;957.1479;;;;
2019/09/22 08:39:47;;;;;;;10.4;8;;;;;;;13.44;75.1543;957.1308;;;;
2019/09/22 08:42:09;;;;;;;16.1;12.7;;;;;;;13.59;74.97363;957.2132;;;;
2019/09/22 08:44:34;;;;;;;9.8;7.2;;;;;;;13.73;74.01172;957.1721;;;;
2019/09/22 08:47:02;;;;;;;10.6;7.9;;;;;;;13.73;74.2666;957.1614;;;;
2019/09/22 08:49:27;;;;;;;11;7.9;;;;;;;13.55;74.55859;957.145;;;;
2019/09/22 08:51:52;;;;;;;10.7;8.1;;;;;;;13.61;75.86816;957.0944;;;;
2019/09/22 08:54:17;;;;;;;10.3;7.2;;;;;;;13.86;74.82129;957.1076;;;;
2019/09/22 08:56:42;;;;;;;10.4;8;;;;;;;14.08;74.02441;957.1545;;;;
2019/09/22 08:59:07;;;;;;;10.8;7.7;;;;;;;14.12;73.50781;957.1013;;;;
2019/09/22 09:01:36;;;;;;;9.7;8;;;;;;;14.16;73.87598;957.0923;;;;
2019/09/22 09:04:01;;;;;;;9.3;7.5;;;;;;;14.26;74.15918;957.099;;;;
2019/09/22 09:06:26;;;;;;;10.2;8.1;;;;;;;14.36;75.09277;957.1075;;;;
2019/09/22 09:08:51;;;;;;;9.9;7.9;;;;;;;14.43;73.64063;957.0795;;;;
2019/09/22 09:11:16;;;;;;;11.6;8;;;;;;;14.47;73.11426;957.0712;;;;
2019/09/22 09:13:41;;;;;;;10.5;7.9;;;;;;;14.64;72.8877;957.0673;;;;
2019/09/22 09:16:06;;;;;;;11.2;8.4;;;;;;;14.69;72.61719;956.9805;;;;
2019/09/22 09:18:32;;;;;;;11.3;8.7;;;;;;;14.71;72.31836;956.9368;;;;
2019/09/22 09:20:57;;;;;;;12.3;8.5;;;;;;;14.63;72.73438;956.9534;;;;
2019/09/22 09:23:22;;;;;;;10.9;8;;;;;;;14.75;73.71973;956.9459;;;;
2019/09/22 09:25:47;;;;;;;10.9;8.2;;;;;;;14.67;72.9873;956.9246;;;;
2019/09/22 09:28:12;;;;;;;11.7;8.3;;;;;;;14.73;73.72852;956.9081;;;;
2019/09/22 09:30:39;;;;;;;11.7;8.1;;;;;;;14.74;73.27734;956.9219;;;;
2019/09/22 09:33:05;;;;;;;10.2;7.7;;;;;;;14.77;72.47852;956.9178;;;;
2019/09/22 09:35:30;;;;;;;11.6;8.3;;;;;;;14.84;72.6543;956.8949;;;;
2019/09/22 09:37:55;;;;;;;10;7.7;;;;;;;15.04;72.39648;956.8484;;;;
2019/09/22 09:40:20;;;;;;;9.9;7.8;;;;;;;15.18;72.18555;956.8398;;;;
2019/09/22 09:42:45;;;;;;;11.3;8.3;;;;;;;15.29;70.9834;956.8254;;;;
2019/09/22 09:46:24;;;;;;;10.4;7.9;;;;;;;15.43;70.56348;956.8289;;;;
2019/09/22 09:48:49;;;;;;;13.2;8.3;;;;;;;15.38;71.0332;956.8284;;;;
2019/09/22 09:51:14;;;;;;;10;8;;;;;;;15.54;70.34863;956.8309;;;;
2019/09/22 09:53:39;;;;;;;11.2;7.7;;;;;;;15.56;70.03906;956.7939;;;;
2019/09/22 09:56:04;;;;;;;13;8.1;;;;;;;15.67;69.90332;956.6897;;;;
2019/09/22 09:58:29;;;;;;;9.8;8.2;;;;;;;15.76;69.12598;956.7133;;;;
2019/09/22 10:00:54;;;;;;;9.3;7.8;;;;;;;15.8;69.2373;956.6639;;;;
2019/09/22 10:03:20;;;;;;;11.1;8.2;;;;;;;15.85;69.29297;956.6298;;;;
2019/09/22 10:05:45;;;;;;;10.4;7.9;;;;;;;15.96;67.99316;956.5567;;;;
2019/09/22 10:08:10;;;;;;;9.9;8.5;;;;;;;15.93;68.53516;956.5784;;;;
2019/09/22 10:10:35;;;;;;;12.6;8.3;;;;;;;15.81;68.45996;956.6136;;;;
2019/09/22 10:13:00;;;;;;;12.1;8.9;;;;;;;15.81;69.00488;956.5669;;;;
2019/09/22 10:15:25;;;;;;;10.8;8.4;;;;;;;15.92;69.64063;956.6345;;;;
2019/09/22 10:17:50;;;;;;;11.7;8.7;;;;;;;15.96;68.69238;956.5773;;;;
2019/09/22 10:20:17;;;;;;;10.2;8.5;;;;;;;16.05;68.99609;956.5382;;;;
2019/09/22 10:22:42;;;;;;;10;8.4;;;;;;;16.24;68.63086;956.5045;;;;
2019/09/22 10:25:08;;;;;;;10.8;8.4;;;;;;;16.26;67.74707;956.4699;;;;
2019/09/22 10:27:35;;;;;;;13.2;8.9;;;;;;;16.36;68.33398;956.5274;;;;
2019/09/22 10:30:00;;;;;;;10.6;8.3;;;;;;;16.46;66.28516;956.4832;;;;
2019/09/22 10:32:25;;;;;;;12;8.6;;;;;;;16.57;67.00293;956.4525;;;;
2019/09/22 10:34:51;;;;;;;12.7;8.8;;;;;;;16.72;66.0791;956.3719;;;;
2019/09/22 10:37:16;;;;;;;11.7;9.1;;;;;;;16.82;64.97266;956.382;;;;
2019/09/22 10:39:41;;;;;;;13.8;9.3;;;;;;;16.77;64.97949;956.356;;;;
2019/09/22 10:42:06;;;;;;;10.6;8.3;;;;;;;16.83;65.86133;956.293;;;;
2019/09/22 10:44:31;;;;;;;10.6;8.6;;;;;;;16.85;65.98145;956.2731;;;;
2019/09/22 10:46:56;;;;;;;9.1;8;;;;;;;16.95;66.52441;956.2684;;;;
2019/09/22 10:49:21;;;;;;;12;7.8;;;;;;;17.09;65.73828;956.2777;;;;
2019/09/22 10:51:46;;;;;;;9.5;8;;;;;;;17.2;65.52051;956.2647;;;;
2019/09/22 10:54:12;;;;;;;11.6;8.3;;;;;;;17.18;65.33105;956.2355;;;;
2019/09/22 10:56:36;;;;;;;11.4;8;;;;;;;17.2;65.81445;956.218;;;;
2019/09/22 10:59:01;;;;;;;10.6;8;;;;;;;17.22;65.01074;956.1615;;;;
2019/09/22 11:01:27;;;;;;;8.4;7.3;;;;;;;17.21;65.26465;956.2006;;;;
2019/09/22 11:03:52;;;;;;;9.8;8.4;;;;;;;17.2;65.29883;956.1831;;;;
2019/09/22 11:06:17;;;;;;;12.3;8.5;;;;;;;17.26;65.62402;956.19;;;;
2019/09/22 11:08:45;;;;;;;8.2;7.4;;;;;;;17.29;65.75488;956.1492;;;;
2019/09/22 11:11:11;;;;;;;10.4;7.2;;;;;;;17.45;65.59277;956.1752;;;;
2019/09/22 11:13:36;;;;;;;10.4;7.9;;;;;;;17.5;67.48438;956.1754;;;;
2019/09/22 11:16:01;;;;;;;10.9;7.9;;;;;;;17.59;65.75488;956.1353;;;;
2019/09/22 11:18:26;;;;;;;9.8;7.7;;;;;;;17.6;64.86719;956.1443;;;;
2019/09/22 11:20:51;;;;;;;9.8;7.6;;;;;;;17.72;65.67969;956.0767;;;;
2019/09/22 11:23:17;;;;;;;11;7.8;;;;;;;17.85;64.17871;956.084;;;;
2019/09/22 11:25:43;;;;;;;9.5;7.5;;;;;;;17.9;63.55469;956.0792;;;;
2019/09/22 11:28:08;;;;;;;11.1;8.4;;;;;;;17.97;64.92188;956.0286;;;;
2019/09/22 11:30:38;;;;;;;8;6.9;;;;;;;18.08;64.12988;955.9495;;;;
2019/09/22 11:33:03;;;;;;;10.5;7.3;;;;;;;18.05;64.39453;955.9327;;;;
2019/09/22 11:35:31;;;;;;;12.8;7.6;;;;;;;18.08;63.37988;955.9512;;;;
2019/09/22 11:37:56;;;;;;;11.7;7.3;;;;;;;18.18;63.42969;955.9141;;;;
2019/09/22 11:40:23;;;;;;;10.7;8;;;;;;;18.16;63.37012;955.9235;;;;
2019/09/22 11:42:48;;;;;;;7.9;7.1;;;;;;;18.21;63.05957;955.9423;;;;
2019/09/22 11:45:16;;;;;;;13.1;7.4;;;;;;;18.28;63.53711;955.8488;;;;
2019/09/22 11:47:41;;;;;;;10.2;6.8;;;;;;;18.25;63.86133;955.8716;;;;
2019/09/22 11:50:07;;;;;;;8.2;6.5;;;;;;;18.3;63.58789;955.8738;;;;
2019/09/22 11:52:48;;;;;;;10.3;7.3;;;;;;;18.29;63.90234;955.8372;;;;
2019/09/22 11:55:35;;;;;;;9.9;7.1;;;;;;;18.39;62.95703;955.8535;;;;
2019/09/22 11:58:06;;;;;;;9.5;6.5;;;;;;;18.51;63.4541;955.8076;;;;
2019/09/22 12:00:39;;;;;;;8.8;6.4;;;;;;;18.56;62.17188;955.7961;;;;
2019/09/22 12:03:05;;;;;;;9.6;6.2;;;;;;;18.58;63.74512;955.7512;;;;
2019/09/22 12:05:29;;;;;;;8.6;6.1;;;;;;;18.59;62.88086;955.7598;;;;
2019/09/22 12:07:54;;;;;;;7.7;6.1;;;;;;;18.62;62.19238;955.7891;;;;
2019/09/22 12:10:20;;;;;;;9.1;6;;;;;;;18.71;62.7334;955.7914;;;;
2019/09/22 12:12:45;;;;;;;7.9;6.1;;;;;;;18.75;61.77637;955.7992;;;;
2019/09/22 12:15:10;;;;;;;9;6.1;;;;;;;18.74;63.80371;955.7854;;;;
2019/09/22 12:17:35;;;;;;;8.4;5.7;;;;;;;18.75;62.51563;955.7489;;;;
2019/09/22 12:20:00;;;;;;;6.9;5.5;;;;;;;18.85;62.69336;955.738;;;;
2019/09/22 12:22:25;;;;;;;7;5.5;;;;;;;18.92;63.77246;955.7241;;;;
2019/09/22 12:24:50;;;;;;;7.6;6.1;;;;;;;18.76;62.21191;955.7142;;;;
2019/09/22 12:27:16;;;;;;;9;6.7;;;;;;;18.85;61.0166;955.7042;;;;
2019/09/22 12:29:41;;;;;;;9.2;6;;;;;;;18.93;62.99805;955.6339;;;;
2019/09/22 12:32:07;;;;;;;7.5;5.9;;;;;;;18.97;62.25391;955.6158;;;;
2019/09/22 12:34:32;;;;;;;9.9;6.1;;;;;;;19.02;62.00293;955.599;;;;
2019/09/22 12:36:57;;;;;;;9.3;6.2;;;;;;;18.96;62.01758;955.5977;;;;
2019/09/22 12:39:23;;;;;;;7.6;5.6;;;;;;;19;61.33105;955.5691;;;;
2019/09/22 12:41:48;;;;;;;7.7;5.3;;;;;;;19.1;61.14648;955.5659;;;;
2019/09/22 12:44:13;;;;;;;7.3;5.6;;;;;;;19.19;61.73242;955.5652;;;;
2019/09/22 12:46:40;;;;;;;7.2;5.5;;;;;;;19.22;61.92578;955.585;;;;
2019/09/22 12:49:05;;;;;;;6.4;4.9;;;;;;;19.38;60.78516;955.5966;;;;
2019/09/22 12:51:30;;;;;;;11.5;6.1;;;;;;;19.67;60.16797;955.5977;;;;
2019/09/22 12:53:55;;;;;;;10.1;5.9;;;;;;;19.72;57.57715;955.5446;;;;
2019/09/22 12:56:21;;;;;;;6.7;5.2;;;;;;;19.64;59.82129;955.5502;;;;
2019/09/22 12:58:50;;;;;;;7.3;5.2;;;;;;;19.78;58.79395;955.5475;;;;
2019/09/22 13:01:15;;;;;;;6.2;4.6;;;;;;;19.77;59.54688;955.426;;;;
2019/09/22 13:03:41;;;;;;;7.6;5.1;;;;;;;19.68;59.45117;955.4247;;;;
2019/09/22 13:06:06;;;;;;;9.2;5.4;;;;;;;19.57;60.97559;955.4171;;;;
2019/09/22 13:08:31;;;;;;;6.4;4.7;;;;;;;19.67;59.66309;955.3711;;;;
2019/09/22 13:10:56;;;;;;;6.1;4.4;;;;;;;19.8;61.21777;955.2862;;;;
2019/09/22 13:13:21;;;;;;;6.5;4.4;;;;;;;19.85;60.30859;955.2975;;;;
2019/09/22 13:15:49;;;;;;;9;4.3;;;;;;;19.7;58.97168;955.3499;;;;
2019/09/22 13:18:14;;;;;;;6;4.1;;;;;;;19.7;60.38281;955.3191;;;;
2019/09/22 13:20:42;;;;;;;5.7;4.2;;;;;;;19.98;58.15137;955.2776;;;;
2019/09/22 13:23:07;;;;;;;7.6;4.6;;;;;;;20.03;59.75781;955.2904;;;;
2019/09/22 13:25:33;;;;;;;5.1;3.7;;;;;;;20;60.83398;955.2467;;;;
2019/09/22 13:27:58;;;;;;;7;4.2;;;;;;;20.11;60.70898;955.2184;;;;
2019/09/22 13:30:23;;;;;;;5.1;3.9;;;;;;;20.09;61.14063;955.2445;;;;
2019/09/22 13:32:48;;;;;;;6.3;3.9;;;;;;;20.12;60.31055;955.2802;;;;
2019/09/22 13:35:13;;;;;;;5.1;3.7;;;;;;;20.15;62.80762;955.2355;;;;
2019/09/22 13:37:38;;;;;;;5.2;3.7;;;;;;;20;60.49414;955.2449;;;;
2019/09/22 13:40:03;;;;;;;4;3.2;;;;;;;20.02;60.39063;955.1973;;;;
2019/09/22 13:42:32;;;;;;;4.9;3.5;;;;;;;20;63.4209;955.1755;;;;
2019/09/22 13:44:57;;;;;;;6.1;3.4;;;;;;;19.97;63.40527;955.1331;;;;
2019/09/22 13:47:24;;;;;;;5;3.3;;;;;;;19.91;62.41016;955.137;;;;
2019/09/22 13:49:49;;;;;;;5.9;3.8;;;;;;;19.97;61.10059;955.1317;;;;
2019/09/22 13:52:14;;;;;;;5.2;3.3;;;;;;;19.97;61.24219;955.1465;;;;
2019/09/22 13:54:40;;;;;;;5.8;3.6;;;;;;;19.98;63.45508;955.153;;;;
2019/09/22 13:57:07;;;;;;;5.7;3.5;;;;;;;19.99;63.62109;955.1807;;;;
2019/09/22 13:59:32;;;;;;;5.6;3.3;;;;;;;20.08;61.29297;955.147;;;;
2019/09/22 14:01:58;;;;;;;6.8;3.6;;;;;;;20.1;61.13086;955.1548;;;;
2019/09/22 14:04:23;;;;;;;6.2;3.8;;;;;;;20.06;62.18457;955.1838;;;;
2019/09/22 14:06:51;;;;;;;7.6;3.6;;;;;;;20.04;62.09863;955.1694;;;;
2019/09/22 14:09:16;;;;;;;5.1;3.4;;;;;;;20.06;61.96094;955.178;;;;
2019/09/22 14:11:41;;;;;;;5.6;3.4;;;;;;;20;62.69238;955.1434;;;;
2019/09/22 14:14:07;;;;;;;6.1;3.3;;;;;;;19.95;62.69727;955.0709;;;;
2019/09/22 14:16:31;;;;;;;8.1;3.5;;;;;;;19.88;63.3457;955.0297;;;;